Time;durP1;ratioP1;P1;durP2;ratioP2;P2;SDS_P1;SDS_P2;PMS_P1;PMS_P2;Temp;Humidity;BMP_temperature;BMP_pressure;BME280_temperature;BME280_humidity;BME280_pressure;Samples;Min_cycle;Max_cycle;Signal;HPM_P1;HPM_P2
2021/04/19 00:02:25;;;;;;;26.42;16.50;;;;;;;9.95;57.98;101719.13;5072443;28;20060;-67
2021/04/19 00:04:53;;;;;;;28.45;17.27;;;;;;;10.01;58.17;101706.97;5068861;28;20054;-68
2021/04/19 00:07:20;;;;;;;25.90;17.75;;;;;;;9.77;59.00;101717.03;5070541;28;20045;-70
2021/04/19 00:09:47;;;;;;;27.17;18.08;;;;;;;9.88;59.04;101718.63;5069651;28;20476;-67
2021/04/19 00:12:14;;;;;;;29.33;18.30;;;;;;;9.72;59.33;101717.06;5069707;28;20052;-67
2021/04/19 00:14:41;;;;;;;29.15;18.70;;;;;;;9.71;59.46;101720.94;5069604;28;20360;-68
2021/04/19 00:17:08;;;;;;;28.80;18.70;;;;;;;9.60;59.57;101711.06;5070349;28;20040;-68
2021/04/19 00:19:35;;;;;;;26.35;17.75;;;;;;;9.56;59.66;101710.81;5070123;28;20048;-65
2021/04/19 00:22:04;;;;;;;28.88;18.23;;;;;;;9.34;60.83;101709.53;5070505;28;20084;-71
2021/04/19 00:24:31;;;;;;;23.25;17.27;;;;;;;9.37;60.89;101707.06;5070211;28;20057;-66
2021/04/19 00:27:07;;;;;;;30.48;16.98;;;;;;;9.43;60.51;101696.88;5072261;28;20045;-63
2021/04/19 00:29:34;;;;;;;26.83;17.33;;;;;;;9.30;61.05;101712.03;5070170;28;20056;-67
2021/04/19 00:32:07;;;;;;;26.77;17.83;;;;;;;9.35;60.96;101702.94;5070764;28;20059;-69
2021/04/19 00:34:34;;;;;;;27.38;17.20;;;;;;;9.56;60.64;101701.75;5067302;28;20476;-64
2021/04/19 00:37:08;;;;;;;21.83;15.57;;;;;;;9.71;59.86;101705.22;5068402;28;20044;-66
2021/04/19 00:39:35;;;;;;;28.25;17.17;;;;;;;9.98;59.11;101696.53;5068031;28;20052;-63
2021/04/19 00:42:03;;;;;;;25.33;16.23;;;;;;;9.70;59.53;101697.25;5069764;28;20051;-64
2021/04/19 00:44:36;;;;;;;22.88;16.52;;;;;;;9.73;59.57;101694.78;5053724;28;20056;-69
2021/04/19 00:47:03;;;;;;;25.73;16.25;;;;;;;9.54;60.22;101695.69;5070097;28;20059;-69
2021/04/19 00:49:31;;;;;;;26.27;16.05;;;;;;;9.41;60.70;101694.41;5070211;28;20049;-72
2021/04/19 00:52:06;;;;;;;30.67;16.00;;;;;;;9.62;60.32;101689.63;5068008;28;20084;-68
2021/04/19 00:54:37;;;;;;;24.48;16.55;;;;;;;9.42;60.82;101687.78;5069957;28;20058;-67
2021/04/19 00:57:07;;;;;;;24.05;15.75;;;;;;;9.45;61.08;101683.66;5069277;28;20424;-63
2021/04/19 00:59:34;;;;;;;22.33;15.52;;;;;;;9.51;60.90;101686.09;5034911;28;20067;-63
2021/04/19 01:02:26;;;;;;;25.35;16.30;;;;;;;9.66;60.53;101688.75;5054980;28;20052;-67
2021/04/19 01:04:56;;;;;;;;;;;;;;;9.49;60.68;101679.22;5068684;28;20050;-63
2021/04/19 01:07:26;;;;;;;23.80;15.93;;;;;;;9.47;60.87;101687.75;5068073;28;19920;-62
2021/04/19 01:10:01;;;;;;;23.42;16.05;;;;;;;9.21;61.95;101683.47;5067631;28;20049;-67
2021/04/19 01:12:28;;;;;;;24.92;15.30;;;;;;;9.28;61.79;101678.50;5051818;28;20052;-70
2021/04/19 01:14:56;;;;;;;24.70;16.10;;;;;;;9.01;62.38;101686.31;5068296;28;20060;-64
2021/04/19 01:17:25;;;;;;;27.35;16.52;;;;;;;9.28;62.21;101686.75;5067822;28;20056;-65
2021/04/19 01:19:52;;;;;;;25.45;17.35;;;;;;;9.13;62.56;101684.88;5068612;28;20044;-67
2021/04/19 01:22:20;;;;;;;25.98;15.85;;;;;;;9.21;62.29;101682.63;5067624;28;20067;-66
2021/04/19 01:24:48;;;;;;;26.80;16.13;;;;;;;9.09;62.42;101685.72;5068545;28;20053;-66
2021/04/19 01:27:15;;;;;;;25.77;16.52;;;;;;;9.01;62.92;101680.81;5051302;28;20048;-65
2021/04/19 01:29:46;;;;;;;24.30;15.75;;;;;;;8.92;63.21;101680.56;5073603;28;20056;-63
2021/04/19 01:32:14;;;;;;;27.75;16.52;;;;;;;9.04;63.19;101674.75;5084187;28;20061;-66
2021/04/19 01:34:41;;;;;;;24.45;15.52;;;;;;;9.05;63.21;101673.63;5068715;28;20057;-64
2021/04/19 01:37:11;;;;;;;25.98;15.90;;;;;;;9.15;62.56;101676.38;5068710;28;20056;-64
2021/04/19 01:39:39;;;;;;;27.58;15.50;;;;;;;9.02;63.33;101677.78;5051023;28;20060;-65
2021/04/19 01:42:09;;;;;;;24.02;15.75;;;;;;;8.97;63.73;101675.06;5053214;28;20084;-62
2021/04/19 01:44:40;;;;;;;27.73;16.05;;;;;;;8.78;63.71;101668.50;5054229;28;20057;-68
2021/04/19 01:47:08;;;;;;;23.02;15.00;;;;;;;9.23;62.93;101674.94;5052688;28;20055;-69
2021/04/19 01:49:39;;;;;;;20.75;14.07;;;;;;;8.87;63.67;101672.31;5050931;28;20056;-66
2021/04/19 01:52:13;;;;;;;23.25;15.70;;;;;;;8.54;64.87;101663.88;5067831;28;20064;-66
2021/04/19 01:54:43;;;;;;;23.73;15.20;;;;;;;8.62;65.00;101671.56;5052819;28;20052;-70
2021/04/19 01:57:12;;;;;;;24.08;15.13;;;;;;;8.55;65.26;101671.00;5072351;28;20378;-67
2021/04/19 01:59:42;;;;;;;23.10;14.90;;;;;;;8.69;64.59;101667.44;5037843;28;20527;-65
2021/04/19 02:02:24;;;;;;;24.55;14.95;;;;;;;9.10;63.54;101665.38;5036566;28;20053;-69
2021/04/19 02:05:02;;;;;;;22.60;14.57;;;;;;;8.81;64.28;101669.88;5053042;28;20101;-67
2021/04/19 02:07:54;;;;;;;23.50;14.27;;;;;;;8.70;64.55;101673.75;5053875;28;20493;-64
2021/04/19 02:10:25;;;;;;;25.05;14.27;;;;;;;8.81;64.28;101672.59;5035850;28;20480;-69
2021/04/19 02:13:04;;;;;;;24.65;13.85;;;;;;;8.91;64.05;101670.66;5051679;28;20041;-62
2021/04/19 02:15:42;;;;;;;25.00;13.80;;;;;;;8.88;63.90;101662.97;5049483;28;20534;-64
2021/04/19 02:18:47;;;;;;;22.63;14.73;;;;;;;8.80;64.10;101670.97;5036237;28;20057;-66
2021/04/19 02:21:36;;;;;;;25.08;14.80;;;;;;;8.93;64.16;101665.72;5051590;28;20052;-63
2021/04/19 02:24:13;;;;;;;28.20;15.50;;;;;;;8.63;64.90;101668.53;5051161;28;20064;-64
2021/04/19 02:26:58;;;;;;;25.60;14.90;;;;;;;8.52;65.47;101668.81;5065885;28;20045;-63
2021/04/19 02:29:37;;;;;;;24.77;14.10;;;;;;;8.51;65.65;101662.50;5071134;28;20051;-66
2021/04/19 02:32:14;;;;;;;23.25;14.20;;;;;;;8.43;65.64;101667.72;5054970;28;20068;-63
2021/04/19 02:34:45;;;;;;;21.83;14.80;;;;;;;8.57;65.38;101661.41;5055507;28;20048;-63
2021/04/19 02:37:13;;;;;;;23.48;15.10;;;;;;;8.42;65.88;101661.41;5071067;28;20055;-66
2021/04/19 02:39:59;;;;;;;21.40;14.85;;;;;;;8.41;66.38;101651.53;5056324;28;20045;-63
2021/04/19 02:42:38;;;;;;;22.70;15.10;;;;;;;8.33;66.42;101654.03;5054315;28;20503;-67
2021/04/19 02:45:07;;;;;;;22.50;15.40;;;;;;;8.16;66.85;101665.22;5053835;28;20048;-62
2021/04/19 02:47:54;;;;;;;23.90;15.38;;;;;;;8.38;66.64;101660.34;5039428;28;20059;-70
2021/04/19 02:50:33;;;;;;;23.98;15.40;;;;;;;8.54;65.92;101661.13;5070645;28;20383;-67
2021/04/19 02:53:03;;;;;;;25.30;15.15;;;;;;;8.39;66.29;101663.88;5071498;28;20377;-63
2021/04/19 02:55:57;;;;;;;26.40;15.43;;;;;;;8.36;66.60;101661.69;5069681;28;20056;-69
2021/04/19 02:58:38;;;;;;;23.08;15.93;;;;;;;8.35;66.56;101660.06;5081664;28;20419;-68
2021/04/19 03:01:20;;;;;;;21.98;15.90;;;;;;;8.47;66.16;101661.41;5091454;28;20052;-67
2021/04/19 03:03:58;;;;;;;29.02;16.98;;;;;;;8.35;65.97;101665.56;5090822;28;20393;-71
2021/04/19 03:06:32;;;;;;;27.90;16.85;;;;;;;8.22;66.57;101655.09;5090219;28;20048;-68
2021/04/19 03:09:06;;;;;;;22.95;15.75;;;;;;;8.03;67.45;101663.03;5090250;28;20048;-65
2021/04/19 03:11:43;;;;;;;27.65;16.52;;;;;;;7.97;68.26;101655.91;5091319;28;20468;-66
2021/04/19 03:14:16;;;;;;;;;;;;;;;8.02;67.96;101653.97;5074497;28;20075;-69
2021/04/19 03:17:02;;;;;;;25.73;16.23;;;;;;;8.09;67.67;101650.97;5076225;28;19927;-69
2021/04/19 03:20:08;;;;;;;26.98;17.52;;;;;;;8.18;67.66;101649.31;5075197;28;20060;-69
2021/04/19 03:22:50;;;;;;;24.20;15.57;;;;;;;8.18;67.48;101645.75;5087213;28;20048;-71
2021/04/19 03:25:27;;;;;;;24.13;15.93;;;;;;;8.15;67.66;101644.38;5082542;28;20048;-65
2021/04/19 03:27:57;;;;;;;24.00;15.68;;;;;;;8.15;67.72;101647.13;5035206;28;20056;-71
2021/04/19 03:30:25;;;;;;;23.63;15.40;;;;;;;8.22;67.04;101650.44;5067275;28;20049;-66
2021/04/19 03:33:02;;;;;;;26.20;17.15;;;;;;;8.37;67.06;101642.19;5050254;28;20448;-68
2021/04/19 03:35:39;;;;;;;27.42;16.52;;;;;;;8.27;66.79;101628.50;5067775;28;20059;-71
2021/04/19 03:38:26;;;;;;;22.55;16.67;;;;;;;8.02;67.62;101639.44;5050786;28;20071;-63
2021/04/19 03:40:53;;;;;;;25.75;16.30;;;;;;;8.12;67.72;101638.63;5050346;28;20072;-64
2021/04/19 03:43:32;;;;;;;28.17;15.90;;;;;;;8.33;67.03;101626.56;5052201;28;20064;-69
2021/04/19 03:46:20;;;;;;;29.55;15.98;;;;;;;8.17;67.63;101636.72;5049570;28;20430;-70
2021/04/19 03:49:10;;;;;;;26.30;16.80;;;;;;;8.21;67.40;101635.03;5051544;28;20044;-65
2021/04/19 03:51:53;;;;;;;30.77;16.65;;;;;;;8.14;67.34;101619.97;5045072;28;20496;-69
2021/04/19 03:54:20;;;;;;;22.70;15.77;;;;;;;8.14;67.37;101625.47;5050492;28;20054;-63
2021/04/19 03:56:50;;;;;;;27.08;15.48;;;;;;;8.12;67.49;101628.50;5050950;28;20052;-64
2021/04/19 03:59:22;;;;;;;30.30;16.40;;;;;;;8.10;67.48;101625.19;5069059;28;20059;-71
2021/04/19 04:02:01;;;;;;;25.33;15.70;;;;;;;8.03;67.61;101632.88;5060081;28;20052;-71
2021/04/19 04:04:34;;;;;;;28.63;15.88;;;;;;;7.94;67.94;101634.50;5033712;28;20595;-68
2021/04/19 04:07:15;;;;;;;24.95;15.57;;;;;;;7.92;68.18;101628.47;5034597;28;20052;-67
2021/04/19 04:09:50;;;;;;;23.33;15.05;;;;;;;7.86;68.35;101626.84;5050182;28;20057;-70
2021/04/19 04:12:24;;;;;;;25.17;14.95;;;;;;;7.94;68.01;101631.75;5049948;28;20053;-67
2021/04/19 04:14:59;;;;;;;24.38;15.52;;;;;;;7.91;67.80;101627.63;5049183;28;20049;-69
2021/04/19 04:17:34;;;;;;;23.25;14.40;;;;;;;7.82;68.38;101628.47;5048077;28;20452;-66
2021/04/19 04:20:18;;;;;;;24.20;15.85;;;;;;;7.87;68.07;101623.81;5048309;28;20059;-67
2021/04/19 04:23:00;;;;;;;22.45;15.15;;;;;;;7.94;67.67;101618.88;5049030;28;20402;-63
2021/04/19 04:25:33;;;;;;;24.83;16.00;;;;;;;8.01;67.67;101615.84;5056100;28;20053;-63
2021/04/19 04:28:13;;;;;;;23.10;15.82;;;;;;;7.95;67.53;101625.16;5054035;28;20055;-64
2021/04/19 04:30:56;;;;;;;25.63;15.32;;;;;;;7.96;67.71;101619.44;5069050;28;20052;-62
2021/04/19 04:33:34;;;;;;;22.25;15.25;;;;;;;8.07;67.65;101619.44;5070346;28;20076;-65
2021/04/19 04:36:08;;;;;;;24.17;15.45;;;;;;;7.99;67.66;101624.38;5068419;28;20048;-64
2021/04/19 04:38:39;;;;;;;24.25;15.75;;;;;;;7.80;68.36;101622.44;5068044;28;20052;-65
2021/04/19 04:41:16;;;;;;;24.83;15.65;;;;;;;7.86;68.17;101619.41;5069386;28;20048;-71
2021/04/19 04:43:47;;;;;;;23.75;16.05;;;;;;;7.90;68.38;101622.44;5070108;28;20060;-68
2021/04/19 04:46:50;;;;;;;25.95;16.10;;;;;;;8.20;67.58;101619.69;5068717;28;20044;-74
2021/04/19 04:49:25;;;;;;;24.48;15.65;;;;;;;8.04;67.43;101626.28;5068124;28;20048;-71
2021/04/19 04:51:56;;;;;;;27.48;15.45;;;;;;;8.00;67.49;101630.69;5069931;28;20060;-67
2021/04/19 04:54:23;;;;;;;22.60;15.43;;;;;;;8.00;67.51;101627.94;5048342;28;20059;-68
2021/04/19 04:57:09;;;;;;;22.00;15.27;;;;;;;8.22;67.12;101624.91;5049115;28;20045;-68
2021/04/19 04:59:39;;;;;;;27.83;16.08;;;;;;;8.10;67.02;101629.84;5068959;28;20045;-67
2021/04/19 05:02:11;;;;;;;24.17;15.18;;;;;;;8.40;66.01;101618.88;5064822;28;20080;-71
2021/04/19 05:04:42;;;;;;;25.40;14.27;;;;;;;8.27;66.54;101624.91;5056579;28;20064;-64
2021/04/19 05:07:12;;;;;;;24.70;14.48;;;;;;;8.43;66.25;101619.16;5072257;28;20131;-64
2021/04/19 05:09:47;;;;;;;25.40;15.10;;;;;;;8.26;66.66;101618.63;5074064;28;20437;-67
2021/04/19 05:12:19;;;;;;;26.70;15.55;;;;;;;8.45;65.69;101625.19;5073223;28;20396;-67
2021/04/19 05:15:06;;;;;;;26.08;14.95;;;;;;;8.22;66.69;101625.72;5073135;28;20080;-64
2021/04/19 05:17:37;;;;;;;24.67;15.57;;;;;;;8.38;66.40;101623.81;5038103;28;20499;-65
2021/04/19 05:20:06;;;;;;;28.67;15.32;;;;;;;8.00;66.89;101633.44;5069882;28;20469;-63
2021/04/19 05:22:41;;;;;;;30.02;15.30;;;;;;;7.96;67.31;101635.06;5073654;28;20056;-65
2021/04/19 05:25:10;;;;;;;28.27;16.73;;;;;;;7.93;67.38;101627.38;5073099;28;20052;-68
2021/04/19 05:27:37;;;;;;;23.80;15.32;;;;;;;7.92;67.78;101633.94;5072883;28;20040;-65
2021/04/19 05:30:12;;;;;;;27.88;16.30;;;;;;;7.84;67.51;101640.81;5072303;28;20508;-67
2021/04/19 05:32:39;;;;;;;29.40;16.80;;;;;;;7.66;68.51;101643.25;5073717;28;20056;-63
2021/04/19 05:35:06;;;;;;;25.80;16.52;;;;;;;7.80;68.04;101642.47;5072177;28;20056;-63
2021/04/19 05:37:33;;;;;;;34.13;15.82;;;;;;;7.75;68.42;101641.63;5073441;28;20048;-70
2021/04/19 05:40:03;;;;;;;30.52;17.13;;;;;;;7.92;67.72;101642.19;5072349;28;20048;-66
2021/04/19 05:42:30;;;;;;;35.70;16.63;;;;;;;7.64;68.12;101645.44;5074228;28;20040;-64
2021/04/19 05:44:57;;;;;;;28.67;16.45;;;;;;;7.53;68.73;101644.59;5056017;28;20346;-66
2021/04/19 05:47:27;;;;;;;30.85;16.63;;;;;;;7.50;69.56;101649.78;5053099;28;20056;-66
2021/04/19 05:49:57;;;;;;;28.92;17.88;;;;;;;7.63;68.50;101650.13;5055297;27;20081;-67
2021/04/19 05:52:25;;;;;;;27.63;17.45;;;;;;;7.61;68.52;101645.97;5054944;28;20057;-65
2021/04/19 05:54:54;;;;;;;31.52;17.05;;;;;;;8.07;68.10;101646.88;5052130;28;20052;-66
2021/04/19 05:57:40;;;;;;;30.58;17.05;;;;;;;7.80;67.95;101644.38;5056765;28;20052;-71
2021/04/19 06:00:13;;;;;;;31.05;17.20;;;;;;;7.82;67.93;101644.91;5092322;28;20060;-69
2021/04/19 06:03:05;;;;;;;35.25;18.00;;;;;;;7.72;68.13;101655.88;5081539;28;20048;-66
2021/04/19 06:05:36;;;;;;;32.42;17.63;;;;;;;7.83;67.96;101650.13;5072198;28;20522;-67
2021/04/19 06:08:09;;;;;;;28.63;17.98;;;;;;;7.98;67.78;101655.63;5071712;28;20052;-69
2021/04/19 06:10:46;;;;;;;26.13;16.67;;;;;;;7.93;67.70;101663.03;5072682;28;20048;-67
2021/04/19 06:13:43;;;;;;;40.65;18.90;;;;;;;7.82;67.76;101659.47;5068813;28;20044;-66
2021/04/19 06:16:14;;;;;;;39.40;18.15;;;;;;;7.59;68.85;101656.38;5073506;28;20503;-71
2021/04/19 06:18:44;;;;;;;29.55;19.38;;;;;;;7.54;69.28;101656.38;5071085;28;20051;-66
2021/04/19 06:21:13;;;;;;;34.85;19.35;;;;;;;7.50;69.18;101658.84;5073338;28;20052;-68
2021/04/19 06:23:40;;;;;;;31.02;18.48;;;;;;;7.50;69.37;101655.28;5071147;28;20144;-67
2021/04/19 06:26:09;;;;;;;27.95;17.65;;;;;;;7.69;69.06;101656.41;5067331;28;20063;-64
2021/04/19 06:28:37;;;;;;;32.45;18.60;;;;;;;7.81;68.61;101663.28;5070857;28;20041;-64
2021/04/19 06:31:20;;;;;;;29.67;19.35;;;;;;;7.91;68.01;101655.06;5073171;28;20044;-66
2021/04/19 06:34:11;;;;;;;29.90;18.70;;;;;;;8.23;66.88;101654.00;5067993;28;20057;-66
2021/04/19 06:36:47;;;;;;;35.83;19.45;;;;;;;8.10;66.84;101655.38;5047987;28;20060;-65
2021/04/19 06:39:35;;;;;;;30.50;18.80;;;;;;;7.97;67.83;101656.72;5050104;28;20076;-68
2021/04/19 06:42:06;;;;;;;32.80;18.45;;;;;;;8.08;67.52;101654.81;5048792;28;20061;-68
2021/04/19 06:44:35;;;;;;;;;;;;;;;8.25;66.66;101652.66;5033329;28;20088;-62
2021/04/19 06:47:06;;;;;;;33.20;18.42;;;;;;;8.58;65.89;101651.22;5049902;28;19920;-69
2021/04/19 06:49:59;;;;;;;35.47;18.88;;;;;;;8.63;65.09;101643.81;5048816;28;20065;-63
2021/04/19 06:52:26;;;;;;;28.33;19.52;;;;;;;8.48;65.69;101649.34;5047048;28;20076;-66
2021/04/19 06:54:55;;;;;;;33.58;19.60;;;;;;;8.54;65.37;101653.69;5048498;28;20063;-62
2021/04/19 06:57:32;;;;;;;31.45;19.23;;;;;;;8.89;64.99;101650.06;5048645;28;20135;-68
2021/04/19 07:00:03;;;;;;;38.85;20.67;;;;;;;9.23;63.50;101651.03;5068734;28;20044;-63
2021/04/19 07:02:36;;;;;;;36.95;19.98;;;;;;;9.32;62.30;101646.59;5048600;28;20075;-65
2021/04/19 07:05:04;;;;;;;36.22;19.48;;;;;;;9.24;62.67;101657.38;5048316;28;20064;-64
2021/04/19 07:07:46;;;;;;;29.20;19.20;;;;;;;9.15;62.95;101657.13;5031695;28;20060;-66
2021/04/19 07:10:18;;;;;;;37.05;20.02;;;;;;;9.09;62.15;101656.31;5047973;28;20064;-67
2021/04/19 07:12:48;;;;;;;41.10;20.30;;;;;;;9.12;62.03;101646.66;5043658;28;20058;-69
2021/04/19 07:15:18;;;;;;;38.78;20.30;;;;;;;8.89;63.10;101650.06;5070963;28;20063;-72
2021/04/19 07:17:59;;;;;;;43.42;20.65;;;;;;;8.86;63.15;101643.22;5068014;28;20060;-73
2021/04/19 07:20:37;;;;;;;35.35;21.23;;;;;;;9.04;65.65;101647.28;5065347;28;20045;-72
2021/04/19 07:23:05;;;;;;;33.58;20.85;;;;;;;8.93;63.36;101640.97;5059042;28;20403;-68
2021/04/19 07:25:35;;;;;;;41.10;23.13;;;;;;;9.11;62.01;101642.28;5061784;28;20049;-73
2021/04/19 07:28:08;;;;;;;32.22;21.30;;;;;;;9.21;62.82;101642.25;5077771;28;20049;-74
2021/04/19 07:30:43;;;;;;;33.85;19.38;;;;;;;9.63;66.74;101639.00;5064800;28;20048;-65
2021/04/19 07:33:28;;;;;;;42.13;20.17;;;;;;;9.66;62.19;101638.44;5068590;28;20048;-74
2021/04/19 07:35:56;;;;;;;32.95;20.25;;;;;;;9.89;61.52;101633.03;5070526;28;20087;-73
2021/04/19 07:38:36;;;;;;;36.85;20.33;;;;;;;10.05;60.49;101631.81;5070961;28;20364;-73
2021/04/19 07:41:11;;;;;;;33.40;19.77;;;;;;;9.77;60.67;101627.06;5066841;28;20408;-69
2021/04/19 07:43:41;;;;;;;34.55;19.92;;;;;;;10.01;59.90;101628.00;5068891;28;20044;-64
2021/04/19 07:46:15;;;;;;;37.13;20.88;;;;;;;10.14;59.63;101627.38;5068427;28;20056;-66
2021/04/19 07:48:47;;;;;;;34.85;20.88;;;;;;;9.87;60.18;101626.16;5049143;28;20052;-64
2021/04/19 07:51:29;;;;;;;43.28;21.52;;;;;;;10.12;59.05;101615.81;5067027;28;20044;-63
2021/04/19 07:54:18;;;;;;;34.50;20.75;;;;;;;10.38;58.99;101621.91;5071063;28;20412;-66
2021/04/19 07:56:53;;;;;;;42.95;20.38;;;;;;;10.55;58.16;101622.28;5075282;28;20300;-73
2021/04/19 07:59:26;;;;;;;32.42;20.65;;;;;;;10.70;57.55;101622.13;5070081;28;20051;-73
2021/04/19 08:02:04;;;;;;;42.55;21.73;;;;;;;10.37;57.61;101614.78;5062210;28;20541;-68
2021/04/19 08:04:33;;;;;;;38.35;21.48;;;;;;;10.66;57.51;101610.06;5066827;28;20071;-71
2021/04/19 08:07:00;;;;;;;47.70;22.45;;;;;;;10.67;57.21;101619.94;5070196;28;20106;-71
2021/04/19 08:09:33;;;;;;;42.70;21.58;;;;;;;10.47;58.56;101613.84;5068186;28;20400;-66
2021/04/19 08:12:08;;;;;;;36.67;21.23;;;;;;;10.50;58.62;101619.59;5070926;28;20057;-67
2021/04/19 08:14:52;;;;;;;33.10;21.15;;;;;;;10.80;57.81;101613.75;5054639;28;20305;-67
2021/04/19 08:17:32;;;;;;;42.63;23.35;;;;;;;10.87;56.55;101616.97;5064578;28;20075;-67
2021/04/19 08:20:29;;;;;;;39.10;22.48;;;;;;;10.83;56.70;101612.31;5062929;28;20519;-71
2021/04/19 08:23:18;;;;;;;34.05;21.98;;;;;;;11.17;57.11;101611.09;5086263;28;20051;-68
2021/04/19 08:26:07;;;;;;;39.30;22.95;;;;;;;11.13;56.21;101618.31;5071014;28;20045;-68
2021/04/19 08:28:55;;;;;;;33.00;22.48;;;;;;;11.13;56.58;101620.25;5072576;28;20036;-68
2021/04/19 08:31:35;;;;;;;44.28;24.83;;;;;;;11.29;56.30;101617.00;5075995;28;20044;-69
2021/04/19 08:34:02;;;;;;;40.03;22.42;;;;;;;11.48;55.85;101616.19;5074748;28;20048;-70
2021/04/19 08:36:30;;;;;;;40.97;24.23;;;;;;;11.64;55.38;101614.84;5074337;28;20431;-64
2021/04/19 08:39:00;;;;;;;42.83;23.60;;;;;;;11.80;55.19;101610.78;5074510;28;20090;-69
2021/04/19 08:41:31;;;;;;;43.45;24.35;;;;;;;11.93;53.77;101612.75;5079847;28;20045;-67
2021/04/19 08:43:58;;;;;;;37.08;24.42;;;;;;;11.53;55.43;101611.41;5066939;28;20044;-65
2021/04/19 08:46:25;;;;;;;48.75;24.85;;;;;;;11.50;54.54;101609.25;5072428;28;20056;-66
2021/04/19 08:48:52;;;;;;;39.17;25.40;;;;;;;11.22;55.33;101612.97;5075119;28;20048;-66
2021/04/19 08:51:19;;;;;;;42.58;25.15;;;;;;;11.22;55.78;101612.97;5072943;28;20055;-66
2021/04/19 08:53:46;;;;;;;40.75;24.48;;;;;;;11.28;55.52;101617.28;5054259;28;20056;-68
2021/04/19 08:56:14;;;;;;;39.70;23.25;;;;;;;11.94;55.30;101609.69;5073723;28;20063;-65
2021/04/19 08:58:44;;;;;;;39.03;24.08;;;;;;;12.11;53.61;101620.19;5075532;28;20048;-73
2021/04/19 09:01:11;;;;;;;42.50;26.38;;;;;;;12.11;53.23;101612.75;5072783;28;20056;-68
2021/04/19 09:03:40;;;;;;;42.58;24.15;;;;;;;11.83;53.69;101621.22;5071746;28;20078;-69
2021/04/19 09:06:15;;;;;;;42.67;23.90;;;;;;;12.19;53.29;101617.56;5074465;28;20062;-65
2021/04/19 09:08:42;;;;;;;35.83;23.13;;;;;;;12.36;51.74;101619.78;5077912;28;20396;-65
2021/04/19 09:11:11;;;;;;;43.47;23.67;;;;;;;12.39;51.96;101610.88;5072503;28;20063;-66
2021/04/19 09:13:40;;;;;;;37.58;22.60;;;;;;;12.54;51.19;101607.00;5078326;28;20048;-71
2021/04/19 09:16:22;;;;;;;36.20;22.67;;;;;;;12.63;51.48;101588.59;5075152;28;20048;-66
2021/04/19 09:18:57;;;;;;;37.33;22.38;;;;;;;12.58;50.59;101596.97;5058237;28;20060;-68
2021/04/19 09:21:42;;;;;;;37.97;21.60;;;;;;;12.78;50.73;101594.63;5073103;28;20048;-67
2021/04/19 09:24:11;;;;;;;42.63;21.48;;;;;;;12.36;50.28;101605.97;5072848;28;20059;-69
2021/04/19 09:26:49;;;;;;;36.40;21.20;;;;;;;12.48;50.28;101594.41;5073834;28;20050;-68
2021/04/19 09:29:25;;;;;;;39.63;21.23;;;;;;;12.13;50.63;101607.72;5079333;28;20052;-69
2021/04/19 09:32:06;;;;;;;33.90;19.70;;;;;;;12.15;50.50;101599.94;5078375;28;20067;-69
2021/04/19 09:34:36;;;;;;;35.47;21.58;;;;;;;11.96;51.38;101598.38;5077762;28;20630;-68
2021/04/19 09:37:04;;;;;;;33.95;20.85;;;;;;;12.33;51.27;101606.56;5070800;28;20056;-64
2021/04/19 09:39:57;;;;;;;30.67;20.70;;;;;;;12.58;50.17;101597.81;5074803;28;20433;-68
2021/04/19 09:42:54;;;;;;;32.88;20.70;;;;;;;12.45;49.13;101604.94;5049739;28;20052;-65
2021/04/19 09:45:46;;;;;;;31.77;19.37;;;;;;;11.97;48.99;101598.06;5035092;28;20048;-68
2021/04/19 09:48:26;;;;;;;32.63;19.60;;;;;;;12.25;49.25;101599.81;5063470;28;20056;-67
2021/04/19 09:51:13;;;;;;;36.42;19.02;;;;;;;12.60;50.10;101580.91;5065174;28;20044;-64
2021/04/19 09:54:04;;;;;;;27.85;18.25;;;;;;;12.48;47.99;101589.72;5063930;28;20063;-63
2021/04/19 09:56:41;;;;;;;24.85;17.30;;;;;;;12.44;48.06;101588.69;5057626;28;20059;-66
2021/04/19 09:59:20;;;;;;;27.33;18.02;;;;;;;12.57;47.35;101587.84;5064743;28;20611;-65
2021/04/19 10:01:49;;;;;;;36.13;18.27;;;;;;;12.73;47.21;101574.56;5066366;28;20459;-69
2021/04/19 10:04:19;;;;;;;27.15;16.13;;;;;;;12.69;46.56;101579.09;5065412;28;20053;-64
2021/04/19 10:06:53;;;;;;;30.27;16.50;;;;;;;12.95;46.83;101581.03;5065931;28;20041;-69
2021/04/19 10:09:27;;;;;;;26.80;17.30;;;;;;;12.90;47.35;101575.59;5050672;28;20192;-65
2021/04/19 10:11:59;;;;;;;26.35;17.10;;;;;;;12.81;46.90;101571.09;5067234;28;20060;-65
2021/04/19 10:14:27;;;;;;;31.20;18.63;;;;;;;12.94;46.82;101568.31;5063947;28;20057;-70
2021/04/19 10:16:57;;;;;;;22.13;14.40;;;;;;;12.97;45.73;101570.47;5065475;28;20048;-65
2021/04/19 10:19:42;;;;;;;33.25;16.67;;;;;;;13.01;46.01;101562.38;5071326;28;20412;-63
2021/04/19 10:22:11;;;;;;;27.88;15.68;;;;;;;13.71;44.50;101562.72;5074784;28;20052;-65
2021/04/19 10:24:52;;;;;;;22.63;14.05;;;;;;;12.93;44.53;101561.16;5074702;28;20059;-64
2021/04/19 10:27:31;;;;;;;23.75;14.45;;;;;;;12.65;45.35;101559.53;5075048;28;20049;-62
2021/04/19 10:30:16;;;;;;;23.52;14.57;;;;;;;12.64;45.59;101566.16;5077222;28;20067;-66
2021/04/19 10:32:43;;;;;;;32.40;15.77;;;;;;;13.08;45.10;101555.31;5082633;28;20048;-63
2021/04/19 10:35:33;;;;;;;26.95;15.57;;;;;;;13.41;44.79;101551.25;5073324;28;20040;-63
2021/04/19 10:38:12;;;;;;;28.23;15.60;;;;;;;13.03;44.24;101547.16;5074099;28;20587;-64
2021/04/19 10:40:39;;;;;;;31.38;14.05;;;;;;;13.39;44.21;101550.75;5075536;28;20056;-67
2021/04/19 10:43:14;;;;;;;27.98;16.13;;;;;;;13.38;44.67;101548.28;5078845;28;20419;-64
2021/04/19 10:45:44;;;;;;;27.52;15.52;;;;;;;13.17;44.84;101544.34;5076086;28;20048;-63
2021/04/19 10:48:17;;;;;;;26.50;16.75;;;;;;;13.15;44.71;101541.06;5077702;28;20048;-67
2021/04/19 10:50:44;;;;;;;22.08;15.38;;;;;;;13.21;44.59;101545.38;5075236;28;20044;-65
2021/04/19 10:53:11;;;;;;;27.13;15.05;;;;;;;13.34;43.90;101538.97;5076877;28;20407;-65
2021/04/19 10:55:38;;;;;;;23.60;14.05;;;;;;;13.25;43.64;101541.66;5075695;28;20037;-65
2021/04/19 10:58:11;;;;;;;25.92;13.35;;;;;;;13.02;43.75;101537.19;5074009;28;20059;-62
2021/04/19 11:00:39;;;;;;;24.67;14.07;;;;;;;13.23;43.78;101529.28;5074705;28;20510;-64
2021/04/19 11:03:07;;;;;;;24.98;13.38;;;;;;;13.87;42.98;101528.81;5077818;28;20051;-63
2021/04/19 11:05:53;;;;;;;25.58;15.57;;;;;;;14.00;42.42;101519.59;5077997;28;20484;-64
2021/04/19 11:08:47;;;;;;;25.55;13.32;;;;;;;14.63;40.85;101516.50;5080414;28;20052;-66
2021/04/19 11:11:36;;;;;;;21.75;12.40;;;;;;;14.26;40.72;101508.72;5078674;28;20052;-63
2021/04/19 11:14:15;;;;;;;20.90;12.60;;;;;;;14.13;41.32;101495.72;5076166;28;20048;-62
2021/04/19 11:16:55;;;;;;;21.00;11.85;;;;;;;13.67;42.35;101506.38;5074549;28;20056;-63
2021/04/19 11:19:35;;;;;;;19.45;12.73;;;;;;;13.59;42.07;101502.41;5076097;28;20059;-62
2021/04/19 11:22:23;;;;;;;21.27;12.13;;;;;;;13.48;42.87;101504.59;5071316;28;20055;-61
2021/04/19 11:25:29;;;;;;;24.33;11.95;;;;;;;13.84;41.51;101504.53;5074149;28;20048;-63
2021/04/19 11:28:18;;;;;;;17.77;11.75;;;;;;;13.71;41.55;101494.34;5075439;28;20040;-64
2021/04/19 11:30:47;;;;;;;19.38;11.45;;;;;;;14.17;40.82;101485.66;5072065;28;20083;-62
2021/04/19 11:33:23;;;;;;;23.02;12.07;;;;;;;13.87;41.60;101486.47;5071701;28;20507;-64
2021/04/19 11:36:01;;;;;;;24.58;12.32;;;;;;;14.39;41.32;101486.44;5069501;28;20047;-65
2021/04/19 11:38:28;;;;;;;27.17;14.85;;;;;;;14.50;41.01;101489.75;5072361;28;20052;-61
2021/04/19 11:41:15;;;;;;;17.70;11.35;;;;;;;14.88;39.49;101476.94;5070996;28;20063;-62
2021/04/19 11:43:50;;;;;;;17.80;9.75;;;;;;;14.43;39.57;101475.53;5075446;28;20048;-65
2021/04/19 11:46:19;;;;;;;19.73;10.43;;;;;;;14.32;40.06;101474.16;5073382;28;20056;-66
2021/04/19 11:48:50;;;;;;;17.05;9.50;;;;;;;14.28;40.25;101475.94;5071617;28;20043;-63
2021/04/19 11:51:21;;;;;;;16.05;9.55;;;;;;;14.76;39.39;101471.22;5066645;28;20049;-67